Detall de PIREP

Printer-friendly versionPDF version

[2014/12/04 08:18:00]
Flight IATA:CT3218
Pilot Number:042
Company ICAO:CAT
Aircraft Type:A320/E
PAX:92
Departing Airport: LEPA
Destination Airport: EFHK
Alternate Airport:EETN
Online: VATSIM
Route:MEROS UN853 MOBLO UZ662 LAMUR UZ67 KORED UN871 DITON T163 ZUE T125 ROMIR UN851 LOHRE UN746 BINKA N746 ALAMI P606 PEXEN
Flight Level:F370
No Slew and time accel
No pause
Crash detect
Detect pilot in Cockpit between each 30 and 45 minutes
08:18 Zero fuel Weight: 82642 Lbs, Fuel Weight: 41832 Lbs
08:18 VATSIM:LEPA 040800Z 00000KT 9999 FEW018 SCT035TCU 10/10 Q1008 NOSIG
08:18 VATSIM:EFHK 040750Z 25011KT 9999 FEW010 BKN200 03/01 Q1016 NOSIG
08:22 Parking Brakes off
08:33 Take-off
08:33 Take off Weight: 149162 Lbs
08:33 Wind: 232º @ 000 Knots Heading: 239º
08:33 POS N39º 33´ 15´´ E002º 43´ 33´´
08:33 Gear Up: 144 Knots
08:33 Flaps:3 at 144 Knots
08:34 Flaps:2 at 155 Knots
08:34 Flaps:0 at 196 Knots
08:48 Wind:225º@023 Knots Heading: 059º Ground Speed: 473 Knots Altitude 27578 ft
08:57 TOC
08:57 Fuel Weight: 37349 Lb
09:03 Wind:207º@015 Knots Heading: 009º Ground Speed: 473 Knots Altitude 36919 ft
09:18 Wind:158º@009 Knots Heading: 038º Ground Speed: 463 Knots Altitude 36935 ft
09:33 Wind:171º@008 Knots Heading: 003º Ground Speed: 464 Knots Altitude 37011 ft
09:48 Wind:234º@007 Knots Heading: 024º Ground Speed: 463 Knots Altitude 36991 ft
10:03 Wind:233º@009 Knots Heading: 005º Ground Speed: 462 Knots Altitude 37001 ft
10:18 Wind:234º@009 Knots Heading: 005º Ground Speed: 462 Knots Altitude 37057 ft
10:33 Wind:183º@008 Knots Heading: 036º Ground Speed: 461 Knots Altitude 37129 ft
10:48 Wind:127º@013 Knots Heading: 042º Ground Speed: 450 Knots Altitude 37211 ft
11:03 Wind:096º@017 Knots Heading: 026º Ground Speed: 441 Knots Altitude 37312 ft
11:18 Wind:083º@014 Knots Heading: 033º Ground Speed: 436 Knots Altitude 37345 ft
11:33 Wind:021º@016 Knots Heading: 035º Ground Speed: 426 Knots Altitude 37316 ft
11:48 Wind:334º@039 Knots Heading: 032º Ground Speed: 421 Knots Altitude 37260 ft
11:58 TOD
11:58 Fuel Weight: 22451 Lb
12:03 Wind:313º@045 Knots Heading: 055º Ground Speed: 416 Knots Altitude 27926 ft
12:15 Flaps:1 at 182 Knots
12:15 Flaps:3 at 181 Knots
12:18 Wind:327º@029 Knots Heading: 039º Ground Speed: 182 Knots Altitude 5082 ft
12:22 Flaps:4 at 169 Knots
12:22 Gear Down: 169 Knots
12:22 Flaps:5 at 167 Knots
12:26 TouchDown:Rate -280 ft/min Speed: 129 Knots
12:26 VATSIM:EFHK 041150Z 27009KT CAVOK 05/02 Q1018 NOSIG
12:26 Land
12:26 Wind:280º@007 Knots
12:26 Heading: 229º
12:26 Flight Duration: 03:53
12:26 Landing Weight: 129345 Lbs
12:26 POS N60º 19´ 26´´ E024º 55´ 42´´
12:30 Parking brakes on
12:30 Block to Block Duration: 04:08
12:30 Final Fuel: 20890 Lbls
12:30 Spent Fuel: 20941 Lbls
12:30 Flight Length: 1649 NM
12:30 TOD Land Length: 120 NM

Exportar CSV

Powered by Drupal - Modified by Danger4k